Time;durP1;ratioP1;P1;durP2;ratioP2;P2;SDS_P1;SDS_P2;PMS_P1;PMS_P2;Temp;Humidity;BMP_temperature;BMP_pressure;BME280_temperature;BME280_humidity;BME280_pressure;Samples;Min_cycle;Max_cycle;Signal;HPM_P1;HPM_P2
2023/03/12 00:00:42;;;;;;;8.15;4.55;;;1.50;99.90;;;;;;4977541;28;20034;-68
2023/03/12 00:03:08;;;;;;;10.27;4.43;;;1.50;99.90;;;;;;4993579;28;20042;-69
2023/03/12 00:05:37;;;;;;;9.88;4.18;;;1.60;99.90;;;;;;4993902;28;20042;-68
2023/03/12 00:08:02;;;;;;;9.10;4.15;;;1.60;99.90;;;;;;4993589;28;20073;-68
2023/03/12 00:10:28;;;;;;;7.07;3.80;;;1.60;99.90;;;;;;4993501;28;20049;-68
2023/03/12 00:12:54;;;;;;;8.70;4.15;;;1.60;99.90;;;;;;4993385;28;20042;-68
2023/03/12 00:15:20;;;;;;;6.82;3.70;;;1.50;99.90;;;;;;4993681;28;20522;-68
2023/03/12 00:17:46;;;;;;;5.18;3.30;;;1.50;99.90;;;;;;4993329;28;20038;-68
2023/03/12 00:20:12;;;;;;;7.13;3.88;;;1.50;99.90;;;;;;4993344;28;20042;-68
2023/03/12 00:22:38;;;;;;;7.50;4.10;;;1.50;99.90;;;;;;4993222;28;20474;-68
2023/03/12 00:25:05;;;;;;;5.55;3.70;;;1.50;99.90;;;;;;4993557;28;20069;-68
2023/03/12 00:27:31;;;;;;;6.78;3.67;;;1.50;99.90;;;;;;4994268;28;20046;-68
2023/03/12 00:29:57;;;;;;;9.07;4.32;;;1.40;99.90;;;;;;4993162;28;20034;-68
2023/03/12 00:32:22;;;;;;;6.80;3.95;;;1.40;99.90;;;;;;4993009;28;20052;-68
2023/03/12 00:34:52;;;;;;;8.00;3.92;;;1.30;99.90;;;;;;4993104;28;20042;-68
2023/03/12 00:37:18;;;;;;;8.73;4.43;;;1.30;99.90;;;;;;4993205;28;20069;-68
2023/03/12 00:39:43;;;;;;;7.28;4.00;;;1.40;99.90;;;;;;4992139;28;20403;-68
2023/03/12 00:42:09;;;;;;;6.43;3.97;;;1.40;99.90;;;;;;4993210;28;20035;-68
2023/03/12 00:44:34;;;;;;;11.80;4.10;;;1.40;99.90;;;;;;4993105;28;20046;-68
2023/03/12 00:47:00;;;;;;;6.35;3.92;;;1.50;99.90;;;;;;4992907;28;20392;-68
2023/03/12 00:49:26;;;;;;;6.50;4.30;;;1.50;99.90;;;;;;4993135;28;20045;-68
2023/03/12 00:51:52;;;;;;;6.60;4.03;;;1.50;99.90;;;;;;4993067;28;20046;-68
2023/03/12 00:54:19;;;;;;;6.65;3.80;;;1.50;99.90;;;;;;4992651;28;20438;-68
2023/03/12 00:56:45;;;;;;;8.00;4.55;;;1.50;99.90;;;;;;4992722;28;20046;-68
2023/03/12 00:59:11;;;;;;;7.05;4.05;;;1.50;99.90;;;;;;4992750;28;20043;-67
2023/03/12 01:01:37;;;;;;;7.05;3.88;;;1.40;99.90;;;;;;4992715;28;20048;-68
2023/03/12 01:04:03;;;;;;;7.72;4.28;;;1.50;99.90;;;;;;4992854;28;20120;-68
2023/03/12 01:06:29;;;;;;;9.27;4.47;;;1.40;99.90;;;;;;4992925;28;20435;-68
2023/03/12 01:08:54;;;;;;;8.50;3.90;;;1.50;99.90;;;;;;4992874;28;20517;-68
2023/03/12 01:11:21;;;;;;;6.43;4.13;;;1.50;99.90;;;;;;4992617;28;20034;-68
2023/03/12 01:13:46;;;;;;;9.70;4.55;;;1.50;99.90;;;;;;4976586;28;20109;-67
2023/03/12 01:16:12;;;;;;;5.32;3.45;;;1.50;99.90;;;;;;4992556;28;20610;-68
2023/03/12 01:18:38;;;;;;;7.35;3.55;;;1.50;99.90;;;;;;4992485;28;20039;-68
2023/03/12 01:21:04;;;;;;;7.05;3.53;;;1.60;99.90;;;;;;4992494;28;20434;-68
2023/03/12 01:23:30;;;;;;;7.13;3.67;;;1.60;99.90;;;;;;4992664;28;20129;-68
2023/03/12 01:25:56;;;;;;;8.07;3.30;;;1.60;99.90;;;;;;4992435;28;20510;-68
2023/03/12 01:28:23;;;;;;;10.68;3.65;;;1.60;99.90;;;;;;4992458;28;20049;-68
2023/03/12 01:30:49;;;;;;;6.63;4.07;;;1.60;99.90;;;;;;4992414;28;20057;-68
2023/03/12 01:33:15;;;;;;;8.85;3.65;;;1.70;99.90;;;;;;4992165;28;20034;-68
2023/03/12 01:35:41;;;;;;;8.73;3.38;;;1.70;99.90;;;;;;4992639;28;20120;-68
2023/03/12 01:38:11;;;;;;;6.20;3.40;;;1.70;99.90;;;;;;4992286;28;20177;-67
2023/03/12 01:40:37;;;;;;;6.70;3.33;;;1.80;99.90;;;;;;4993164;28;20089;-68
2023/03/12 01:43:23;;;;;;;7.43;3.67;;;1.80;99.90;;;;;;4992266;28;20042;-68
2023/03/12 01:46:06;;;;;;;5.82;3.50;;;1.80;99.90;;;;;;4976444;28;20050;-68
2023/03/12 01:48:47;;;;;;;9.25;4.25;;;1.80;99.90;;;;;;4992307;28;20056;-68
2023/03/12 01:51:14;;;;;;;7.55;3.60;;;1.80;99.90;;;;;;4994461;28;20120;-68
2023/03/12 01:53:44;;;;;;;4.88;3.10;;;1.80;99.90;;;;;;4996322;28;20046;-68
2023/03/12 01:56:11;;;;;;;10.35;3.75;;;1.80;99.90;;;;;;4996307;28;20093;-68
2023/03/12 01:58:38;;;;;;;7.53;3.63;;;1.80;99.90;;;;;;4995932;28;20046;-68
2023/03/12 02:01:05;;;;;;;8.05;3.20;;;1.80;99.90;;;;;;4995929;28;20450;-68
2023/03/12 02:03:31;;;;;;;9.02;3.55;;;1.80;99.90;;;;;;4995869;28;20073;-68
2023/03/12 02:06:05;;;;;;;9.40;3.33;;;1.90;99.90;;;;;;4995887;28;20089;-68
2023/03/12 02:08:36;;;;;;;10.45;3.92;;;1.90;99.90;;;;;;4995881;28;20046;-68
2023/03/12 02:11:01;;;;;;;7.57;3.78;;;1.90;99.90;;;;;;4995812;28;20082;-68
2023/03/12 02:13:27;;;;;;;7.68;4.10;;;1.80;99.90;;;;;;4995683;28;20073;-68
2023/03/12 02:15:53;;;;;;;7.45;3.72;;;1.90;99.90;;;;;;4995720;28;20064;-68
2023/03/12 02:18:20;;;;;;;10.18;4.10;;;1.90;99.90;;;;;;4995509;28;20042;-68
2023/03/12 02:20:54;;;;;;;8.50;3.92;;;1.90;99.90;;;;;;4979669;28;20054;-68
2023/03/12 02:23:42;;;;;;;8.00;4.15;;;1.90;99.90;;;;;;4995767;28;20510;-68
2023/03/12 02:26:10;;;;;;;9.18;4.28;;;1.90;99.90;;;;;;4995775;28;20101;-68
2023/03/12 02:28:42;;;;;;;6.57;3.58;;;1.90;99.90;;;;;;4995714;28;20393;-68
2023/03/12 02:31:11;;;;;;;11.02;4.00;;;1.90;99.90;;;;;;4995480;28;20049;-68
2023/03/12 02:33:36;;;;;;;8.57;3.75;;;1.90;99.90;;;;;;4995232;28;20057;-68
2023/03/12 02:36:02;;;;;;;8.18;4.43;;;1.90;99.90;;;;;;4995563;28;20042;-68
2023/03/12 02:38:34;;;;;;;6.57;4.30;;;1.90;99.90;;;;;;4995230;28;20046;-68
2023/03/12 02:41:21;;;;;;;6.90;3.95;;;1.90;99.90;;;;;;4996353;28;20128;-68
2023/03/12 02:43:57;;;;;;;8.45;4.30;;;2.00;99.90;;;;;;4995189;28;20049;-68
2023/03/12 02:46:23;;;;;;;9.00;4.40;;;2.00;99.90;;;;;;4995423;28;20081;-68
2023/03/12 02:48:49;;;;;;;7.95;4.20;;;2.00;99.90;;;;;;4995288;28;20078;-68
2023/03/12 02:51:14;;;;;;;14.63;4.00;;;1.90;99.90;;;;;;4995349;28;20053;-68
2023/03/12 02:53:40;;;;;;;9.65;4.10;;;2.00;99.90;;;;;;4994906;28;20042;-68
2023/03/12 02:56:06;;;;;;;10.40;4.72;;;2.00;99.90;;;;;;4995232;28;20128;-68
2023/03/12 02:58:32;;;;;;;6.40;3.55;;;1.90;99.90;;;;;;4994888;28;20583;-68
2023/03/12 03:00:57;;;;;;;8.80;4.20;;;2.00;99.90;;;;;;4994877;28;20125;-68
2023/03/12 03:03:23;;;;;;;7.90;3.95;;;2.00;99.90;;;;;;4977769;28;20042;-68
2023/03/12 03:05:49;;;;;;;7.43;3.67;;;2.00;99.90;;;;;;4995101;28;20490;-68
2023/03/12 03:08:14;;;;;;;7.30;3.53;;;2.00;99.90;;;;;;4994799;28;20487;-68
2023/03/12 03:10:40;;;;;;;9.25;3.70;;;2.00;99.90;;;;;;4994688;28;20100;-68
2023/03/12 03:13:05;;;;;;;7.10;3.67;;;2.00;99.90;;;;;;4994845;28;20049;-68
2023/03/12 03:15:31;;;;;;;8.95;3.20;;;2.00;99.90;;;;;;4994639;28;20491;-68
2023/03/12 03:17:57;;;;;;;7.60;4.05;;;2.00;99.90;;;;;;4994630;28;20050;-68
2023/03/12 03:20:24;;;;;;;7.07;3.97;;;2.00;99.90;;;;;;4994564;28;20487;-68
2023/03/12 03:22:50;;;;;;;9.10;3.28;;;2.00;99.90;;;;;;4994406;28;20088;-68
2023/03/12 03:25:17;;;;;;;9.15;4.00;;;2.00;99.90;;;;;;4994424;28;20042;-68
2023/03/12 03:27:42;;;;;;;7.95;4.05;;;2.10;99.90;;;;;;4994366;28;20057;-68
2023/03/12 03:30:09;;;;;;;10.05;3.53;;;2.10;99.90;;;;;;4994642;28;20042;-68
2023/03/12 03:32:35;;;;;;;7.30;3.60;;;2.10;99.90;;;;;;4994033;28;20042;-68
2023/03/12 03:35:01;;;;;;;10.23;3.33;;;2.10;99.90;;;;;;4994527;28;20092;-68
2023/03/12 03:37:26;;;;;;;9.55;3.90;;;2.10;99.90;;;;;;4994142;28;20525;-68
2023/03/12 03:39:52;;;;;;;9.05;3.85;;;2.10;99.90;;;;;;4978240;28;20042;-68
2023/03/12 03:42:18;;;;;;;8.00;3.67;;;2.10;99.90;;;;;;4994375;28;20487;-68
2023/03/12 03:44:43;;;;;;;7.50;3.67;;;2.00;99.90;;;;;;4993967;28;20491;-68
2023/03/12 03:47:09;;;;;;;9.32;3.90;;;2.00;99.90;;;;;;4994276;28;20061;-68
2023/03/12 03:49:34;;;;;;;8.65;4.00;;;2.00;99.90;;;;;;4993969;28;20038;-68
2023/03/12 03:52:00;;;;;;;8.88;3.72;;;2.00;99.90;;;;;;4994186;28;20092;-68
2023/03/12 03:54:26;;;;;;;9.30;3.90;;;2.10;99.90;;;;;;4993800;28;20495;-68
2023/03/12 03:56:51;;;;;;;11.05;4.43;;;2.10;99.90;;;;;;4993772;28;20078;-68
2023/03/12 03:59:17;;;;;;;8.90;4.05;;;2.10;99.90;;;;;;4993804;28;20046;-68
2023/03/12 04:01:42;;;;;;;7.60;3.95;;;2.10;99.90;;;;;;4993712;28;20038;-68
2023/03/12 04:04:08;;;;;;;16.52;4.10;;;2.10;99.90;;;;;;4993878;28;20038;-68
2023/03/12 04:06:34;;;;;;;8.02;3.75;;;2.10;99.90;;;;;;4993666;28;20402;-68
2023/03/12 04:08:59;;;;;;;7.90;3.60;;;2.10;99.90;;;;;;4993886;28;20038;-68
2023/03/12 04:11:25;;;;;;;10.15;3.63;;;2.10;99.90;;;;;;4993513;28;20483;-68
2023/03/12 04:13:51;;;;;;;8.95;3.92;;;2.10;99.90;;;;;;4993529;28;20039;-68
2023/03/12 04:16:17;;;;;;;12.20;3.63;;;2.10;99.90;;;;;;4993479;28;20045;-68
2023/03/12 04:18:43;;;;;;;9.63;3.38;;;2.10;99.90;;;;;;4993387;28;20573;-68
2023/03/12 04:21:10;;;;;;;6.05;4.05;;;2.10;99.90;;;;;;4994643;28;20224;-68
2023/03/12 04:23:37;;;;;;;10.32;4.80;;;2.10;99.90;;;;;;4993260;28;20054;-68
2023/03/12 04:26:03;;;;;;;9.20;3.97;;;2.10;99.90;;;;;;4993569;28;20046;-68
2023/03/12 04:28:29;;;;;;;11.15;4.03;;;2.20;99.90;;;;;;4993257;28;20044;-68
2023/03/12 04:31:00;;;;;;;7.93;4.30;;;2.10;99.90;;;;;;4993184;28;20132;-68
2023/03/12 04:33:28;;;;;;;7.97;3.63;;;2.10;99.90;;;;;;4977077;28;20042;-68
2023/03/12 04:35:54;;;;;;;9.02;3.35;;;2.10;99.90;;;;;;4993129;28;20042;-68
2023/03/12 04:38:24;;;;;;;9.32;3.83;;;2.10;99.90;;;;;;4993010;28;20594;-68
2023/03/12 04:40:58;;;;;;;9.30;3.65;;;2.10;99.90;;;;;;4993309;28;20122;-68
2023/03/12 04:43:23;;;;;;;12.55;4.60;;;2.10;99.90;;;;;;4992931;28;20049;-68
2023/03/12 04:45:49;;;;;;;8.43;4.40;;;2.10;99.90;;;;;;4992937;28;20038;-68
2023/03/12 04:48:14;;;;;;;8.63;3.70;;;2.10;99.90;;;;;;4992904;28;20074;-68
2023/03/12 04:50:40;;;;;;;8.35;3.40;;;2.10;99.90;;;;;;4992872;28;20077;-68
2023/03/12 04:53:05;;;;;;;10.40;3.78;;;2.20;99.90;;;;;;4992990;28;20049;-68
2023/03/12 04:55:31;;;;;;;9.25;3.70;;;2.20;99.90;;;;;;4993068;28;20050;-68
2023/03/12 04:57:57;;;;;;;10.43;4.15;;;2.20;99.90;;;;;;4992852;28;20587;-68
2023/03/12 05:00:22;;;;;;;6.13;3.20;;;2.20;99.90;;;;;;4992755;28;20498;-68
2023/03/12 05:02:48;;;;;;;8.82;3.40;;;2.20;99.90;;;;;;4992712;28;20038;-68
2023/03/12 05:05:13;;;;;;;6.32;3.15;;;2.20;99.90;;;;;;4992998;28;20038;-68
2023/03/12 05:07:39;;;;;;;7.65;3.85;;;2.20;99.90;;;;;;4992702;28;20510;-68
2023/03/12 05:10:05;;;;;;;7.85;3.25;;;2.30;99.90;;;;;;4992915;28;20038;-68
2023/03/12 05:12:30;;;;;;;7.00;3.50;;;2.30;99.90;;;;;;4992871;28;20558;-68
2023/03/12 05:14:56;;;;;;;9.70;3.88;;;2.30;99.90;;;;;;4992760;28;20053;-68
2023/03/12 05:17:22;;;;;;;8.10;3.33;;;2.30;99.90;;;;;;4992498;28;20410;-68
2023/03/12 05:19:47;;;;;;;7.90;3.63;;;2.30;99.90;;;;;;4992538;28;20042;-68
2023/03/12 05:22:13;;;;;;;7.95;3.33;;;2.30;99.90;;;;;;4992507;28;20121;-68
2023/03/12 05:24:39;;;;;;;10.30;4.25;;;2.30;99.90;;;;;;4993033;28;20043;-68
2023/03/12 05:27:07;;;;;;;6.70;3.40;;;2.30;99.90;;;;;;4998651;28;20053;-68
2023/03/12 05:29:34;;;;;;;8.75;3.55;;;2.30;99.90;;;;;;5000206;28;20074;-68
2023/03/12 05:32:00;;;;;;;11.77;3.83;;;2.30;99.90;;;;;;4998976;28;20120;-68
2023/03/12 05:34:29;;;;;;;7.90;3.92;;;2.30;99.90;;;;;;4998783;28;20046;-68
2023/03/12 05:36:55;;;;;;;6.68;3.00;;;2.30;99.90;;;;;;4999122;28;20046;-68
2023/03/12 05:39:21;;;;;;;10.52;3.80;;;2.30;99.90;;;;;;4998889;28;20458;-68
2023/03/12 05:41:47;;;;;;;8.10;3.72;;;2.30;99.90;;;;;;4999156;28;20438;-68
2023/03/12 05:44:14;;;;;;;8.43;3.72;;;2.30;99.90;;;;;;4998736;28;20571;-68
2023/03/12 05:46:41;;;;;;;7.55;3.97;;;2.30;99.90;;;;;;5000182;28;20061;-68
2023/03/12 05:49:06;;;;;;;7.43;3.60;;;2.30;99.90;;;;;;4999036;28;20074;-68
2023/03/12 05:51:32;;;;;;;10.32;3.63;;;2.30;99.90;;;;;;4998796;28;20073;-68
2023/03/12 05:53:58;;;;;;;10.25;4.05;;;2.30;99.90;;;;;;4998676;28;20073;-68
2023/03/12 05:56:24;;;;;;;8.60;3.63;;;2.30;99.90;;;;;;4999005;28;20141;-68
2023/03/12 05:58:50;;;;;;;6.57;3.65;;;2.30;99.90;;;;;;4998661;28;20562;-68
2023/03/12 06:01:20;;;;;;;8.38;3.45;;;2.30;99.90;;;;;;4998622;28;20411;-68
2023/03/12 06:03:46;;;;;;;10.63;3.78;;;2.30;99.90;;;;;;4998662;28;20038;-68
2023/03/12 06:06:12;;;;;;;8.02;3.67;;;2.30;99.90;;;;;;4998610;28;20110;-68
2023/03/12 06:08:39;;;;;;;10.57;4.15;;;2.30;99.90;;;;;;4998612;28;20046;-68
2023/03/12 06:11:04;;;;;;;7.82;4.43;;;2.30;99.90;;;;;;4998620;28;20092;-68
2023/03/12 06:13:30;;;;;;;10.30;4.55;;;2.30;99.90;;;;;;4998745;28;20042;-68
2023/03/12 06:16:08;;;;;;;7.38;4.10;;;2.30;99.90;;;;;;4998798;28;20410;-68
2023/03/12 06:18:34;;;;;;;10.32;4.03;;;2.30;99.90;;;;;;4998505;28;20042;-68
2023/03/12 06:21:11;;;;;;;7.50;4.30;;;2.30;99.90;;;;;;4998521;28;20045;-68
2023/03/12 06:23:37;;;;;;;12.55;4.47;;;2.30;99.90;;;;;;4998771;28;20042;-69
2023/03/12 06:26:03;;;;;;;11.50;4.18;;;2.30;99.90;;;;;;4998479;28;20038;-68
2023/03/12 06:28:28;;;;;;;7.68;4.03;;;2.30;99.90;;;;;;4998419;28;20052;-68
2023/03/12 06:30:55;;;;;;;12.55;4.80;;;2.30;99.90;;;;;;4998679;28;20133;-68
2023/03/12 06:33:20;;;;;;;7.35;3.92;;;2.30;99.90;;;;;;4981969;28;20041;-68
2023/03/12 06:35:46;;;;;;;9.02;4.10;;;2.30;99.90;;;;;;4998392;28;20038;-68
2023/03/12 06:38:12;;;;;;;9.40;4.35;;;2.30;99.90;;;;;;4995504;28;20066;-68
2023/03/12 06:40:38;;;;;;;8.65;4.50;;;2.30;99.90;;;;;;4995244;28;20038;-68
2023/03/12 06:43:03;;;;;;;10.20;4.43;;;2.30;99.90;;;;;;4979256;28;20076;-68
2023/03/12 06:45:29;;;;;;;11.00;4.57;;;2.30;99.90;;;;;;4995234;28;20043;-68
2023/03/12 06:47:54;;;;;;;11.48;4.32;;;2.30;99.90;;;;;;4995147;28;20053;-67
2023/03/12 06:50:20;;;;;;;9.35;4.28;;;2.30;99.90;;;;;;4995137;28;20046;-67
2023/03/12 06:52:45;;;;;;;8.00;4.53;;;2.30;99.90;;;;;;4994967;28;20047;-68
2023/03/12 06:55:11;;;;;;;12.45;4.32;;;2.30;99.90;;;;;;4994994;28;20042;-68
2023/03/12 06:57:37;;;;;;;7.65;4.05;;;2.30;99.90;;;;;;4995115;28;20042;-68
2023/03/12 07:00:03;;;;;;;9.25;4.30;;;2.20;99.90;;;;;;4994921;28;20538;-68
2023/03/12 07:02:29;;;;;;;11.48;4.88;;;2.30;99.90;;;;;;4994926;28;20503;-68
2023/03/12 07:04:55;;;;;;;10.82;4.50;;;2.30;99.90;;;;;;4994744;28;20041;-68
2023/03/12 07:07:20;;;;;;;11.40;5.15;;;2.30;99.90;;;;;;4995045;28;20053;-68
2023/03/12 07:09:46;;;;;;;9.77;4.93;;;2.30;99.90;;;;;;4994697;28;20565;-68
2023/03/12 07:12:11;;;;;;;9.73;4.45;;;2.30;99.90;;;;;;4994662;28;20038;-68
2023/03/12 07:14:37;;;;;;;11.05;4.75;;;2.20;99.90;;;;;;4994798;28;20125;-68
2023/03/12 07:17:03;;;;;;;9.50;4.80;;;2.20;99.90;;;;;;4994537;28;20471;-68
2023/03/12 07:19:29;;;;;;;10.07;5.35;;;2.20;99.90;;;;;;4994600;28;20049;-68
2023/03/12 07:21:55;;;;;;;12.52;4.95;;;2.20;99.90;;;;;;4994557;28;20045;-68
2023/03/12 07:24:21;;;;;;;10.77;5.72;;;2.20;99.90;;;;;;4994392;28;20061;-68
2023/03/12 07:26:46;;;;;;;18.13;5.60;;;2.20;99.90;;;;;;4994462;28;20052;-68
2023/03/12 07:29:12;;;;;;;9.82;5.18;;;2.20;99.90;;;;;;4994395;28;20031;-68
2023/03/12 07:31:37;;;;;;;11.45;5.85;;;2.20;99.90;;;;;;4994373;28;20443;-68
2023/03/12 07:34:04;;;;;;;11.20;5.10;;;2.20;99.90;;;;;;4994375;28;20044;-68
2023/03/12 07:36:31;;;;;;;11.25;5.40;;;2.20;99.90;;;;;;4994257;28;20525;-68
2023/03/12 07:38:56;;;;;;;10.65;5.97;;;2.20;99.90;;;;;;4994169;28;20042;-68
2023/03/12 07:41:22;;;;;;;10.23;5.60;;;2.10;99.90;;;;;;4994141;28;20450;-68
2023/03/12 07:43:48;;;;;;;12.30;6.22;;;2.20;99.90;;;;;;4994176;28;20045;-68
2023/03/12 07:46:14;;;;;;;10.77;5.45;;;2.20;99.90;;;;;;4995536;28;20386;-68
2023/03/12 07:48:39;;;;;;;10.85;5.40;;;2.20;99.90;;;;;;4993760;28;20042;-68
2023/03/12 07:51:05;;;;;;;11.27;5.82;;;2.30;99.90;;;;;;4993984;28;20069;-68
2023/03/12 07:53:31;;;;;;;10.63;5.13;;;2.30;99.90;;;;;;4993883;28;20076;-68
2023/03/12 07:55:56;;;;;;;9.88;5.50;;;2.30;99.90;;;;;;4994145;28;20043;-67
2023/03/12 07:58:22;;;;;;;11.57;4.85;;;2.30;99.90;;;;;;4977633;28;20411;-68
2023/03/12 08:00:48;;;;;;;13.95;5.53;;;2.30;99.90;;;;;;4977631;28;20049;-68
2023/03/12 08:03:13;;;;;;;12.18;5.25;;;2.30;99.90;;;;;;4977480;28;20038;-68
2023/03/12 08:05:39;;;;;;;12.90;5.40;;;2.30;99.90;;;;;;4993691;28;20038;-68
2023/03/12 08:08:05;;;;;;;9.50;5.28;;;2.30;99.90;;;;;;4993672;28;20042;-68
2023/03/12 08:10:31;;;;;;;8.88;5.30;;;2.30;99.90;;;;;;4993607;28;20096;-67
2023/03/12 08:12:56;;;;;;;8.20;5.22;;;2.40;99.90;;;;;;4993576;28;20049;-68
2023/03/12 08:15:22;;;;;;;11.75;5.50;;;2.40;99.90;;;;;;4993980;28;20129;-68
2023/03/12 08:17:47;;;;;;;9.48;5.22;;;2.40;99.90;;;;;;4993454;28;20053;-67
2023/03/12 08:20:13;;;;;;;8.93;5.13;;;2.40;99.90;;;;;;4993866;28;20396;-67
2023/03/12 08:22:39;;;;;;;9.05;5.43;;;2.40;99.90;;;;;;4993624;28;20517;-68
2023/03/12 08:25:06;;;;;;;15.40;6.18;;;2.40;99.90;;;;;;4993585;28;20108;-68
2023/03/12 08:27:32;;;;;;;10.35;4.85;;;2.40;99.90;;;;;;4993309;28;20054;-68
2023/03/12 08:29:58;;;;;;;15.57;5.55;;;2.30;99.90;;;;;;4993518;28;20050;-68
2023/03/12 08:32:24;;;;;;;9.13;5.07;;;2.40;99.90;;;;;;4976888;28;20034;-68
2023/03/12 08:34:49;;;;;;;9.45;5.07;;;2.40;99.90;;;;;;4993377;28;20046;-68
2023/03/12 08:37:15;;;;;;;11.10;5.00;;;2.40;99.90;;;;;;4993097;28;20538;-68
2023/03/12 08:39:40;;;;;;;9.93;5.15;;;2.40;99.90;;;;;;4993309;28;20034;-68
2023/03/12 08:42:06;;;;;;;10.82;4.40;;;2.40;99.90;;;;;;4976861;28;20495;-68
2023/03/12 08:44:32;;;;;;;9.60;4.45;;;2.50;99.90;;;;;;4992948;28;20039;-68
2023/03/12 08:46:58;;;;;;;11.73;5.22;;;2.50;99.90;;;;;;4993025;28;20082;-68
2023/03/12 08:49:23;;;;;;;11.60;4.85;;;2.50;99.90;;;;;;4993216;28;20042;-72
2023/03/12 08:51:52;;;;;;;9.13;4.65;;;2.50;99.90;;;;;;4976744;28;20491;-71
2023/03/12 08:54:19;;;;;;;12.10;5.57;;;2.50;99.90;;;;;;4992800;28;20034;-71
2023/03/12 08:56:50;;;;;;;11.70;5.60;;;2.50;99.90;;;;;;4992759;28;20050;-71
2023/03/12 08:59:17;;;;;;;8.05;4.55;;;2.50;99.90;;;;;;4976534;28;20038;-71
2023/03/12 09:01:43;;;;;;;7.40;4.18;;;2.50;99.90;;;;;;4975879;28;20034;-71
2023/03/12 09:04:08;;;;;;;8.70;4.55;;;2.60;99.90;;;;;;4992911;28;20042;-71
2023/03/12 09:06:34;;;;;;;8.90;4.55;;;2.50;99.90;;;;;;4992683;28;20498;-71
2023/03/12 09:09:04;;;;;;;9.32;4.50;;;2.50;99.90;;;;;;4992635;28;20101;-71
2023/03/12 09:11:33;;;;;;;10.02;4.22;;;2.50;99.90;;;;;;4992621;28;20122;-72
2023/03/12 09:14:00;;;;;;;8.60;4.60;;;2.50;99.90;;;;;;4992505;28;20481;-72
2023/03/12 09:16:26;;;;;;;7.78;4.43;;;2.50;99.90;;;;;;4992816;28;20120;-71
2023/03/12 09:18:52;;;;;;;11.23;5.50;;;2.50;99.90;;;;;;4976318;28;20056;-72
2023/03/12 09:21:17;;;;;;;12.93;5.55;;;2.50;99.90;;;;;;4992733;28;20129;-71
2023/03/12 09:23:43;;;;;;;13.70;5.72;;;2.50;99.90;;;;;;4992372;28;20487;-71
2023/03/12 09:26:12;;;;;;;10.68;5.70;;;2.50;99.90;;;;;;4992886;28;20088;-71
2023/03/12 09:28:38;;;;;;;12.98;6.50;;;2.50;99.90;;;;;;4992440;28;20093;-71
2023/03/12 09:31:04;;;;;;;9.27;6.13;;;2.60;99.90;;;;;;4992363;28;20043;-71
2023/03/12 09:33:32;;;;;;;8.30;5.80;;;2.60;99.90;;;;;;4992423;28;20046;-71
2023/03/12 09:35:59;;;;;;;10.60;6.43;;;2.50;99.90;;;;;;4976233;28;20034;-71
2023/03/12 09:38:26;;;;;;;12.98;6.53;;;2.60;99.90;;;;;;4992305;28;20073;-71
2023/03/12 09:40:52;;;;;;;13.15;6.40;;;2.60;99.90;;;;;;4992350;28;20042;-72
2023/03/12 09:43:26;;;;;;;12.18;6.53;;;2.50;99.90;;;;;;4992256;28;20384;-71
2023/03/12 09:45:54;;;;;;;13.30;6.72;;;2.50;99.90;;;;;;4977002;28;20046;-71
2023/03/12 09:48:33;;;;;;;12.80;6.60;;;2.50;99.90;;;;;;4992443;28;20451;-71
2023/03/12 09:51:15;;;;;;;13.43;6.93;;;2.50;99.90;;;;;;4992487;28;20049;-71
2023/03/12 09:53:50;;;;;;;16.42;7.57;;;2.50;99.90;;;;;;4976701;28;20103;-72
2023/03/12 09:56:18;;;;;;;10.23;7.28;;;2.40;99.90;;;;;;4992766;28;20045;-72
2023/03/12 09:58:48;;;;;;;12.50;7.47;;;2.50;99.90;;;;;;4992517;28;20046;-71
2023/03/12 10:01:47;;;;;;;9.73;7.35;;;2.50;99.90;;;;;;4992159;28;20042;-71
2023/03/12 10:04:13;;;;;;;10.25;8.02;;;2.50;99.90;;;;;;4992301;28;20038;-72
2023/03/12 10:07:04;;;;;;;12.02;7.35;;;2.40;99.90;;;;;;4992028;28;20518;-72
2023/03/12 10:09:38;;;;;;;12.18;8.32;;;2.50;99.90;;;;;;4976276;28;20038;-72
2023/03/12 10:12:14;;;;;;;13.93;8.40;;;2.50;99.90;;;;;;4993656;28;20494;-71
2023/03/12 10:15:11;;;;;;;13.25;8.25;;;2.50;99.90;;;;;;4979495;28;20038;-71
2023/03/12 10:18:09;;;;;;;11.77;8.00;;;2.50;99.90;;;;;;4960580;28;20050;-72
2023/03/12 10:20:49;;;;;;;11.70;8.05;;;2.60;99.90;;;;;;4995721;28;20066;-73
2023/03/12 10:23:24;;;;;;;10.52;7.55;;;2.50;99.90;;;;;;4995776;28;20042;-72
2023/03/12 10:25:51;;;;;;;15.63;8.52;;;2.50;99.90;;;;;;4995925;28;20042;-72
2023/03/12 10:28:34;;;;;;;15.57;9.27;;;2.70;99.90;;;;;;4995516;28;20092;-72
2023/03/12 10:31:04;;;;;;;10.75;8.48;;;2.70;99.90;;;;;;4995539;28;20515;-72
2023/03/12 10:34:00;;;;;;;13.27;8.07;;;2.70;99.90;;;;;;4995575;28;20046;-72
2023/03/12 10:36:32;;;;;;;13.63;9.93;;;2.70;99.90;;;;;;4977373;28;20085;-72
2023/03/12 10:38:57;;;;;;;14.20;9.23;;;2.80;99.90;;;;;;4995293;28;20125;-72
2023/03/12 10:41:27;;;;;;;14.50;9.55;;;2.80;99.90;;;;;;4995294;28;20141;-72
2023/03/12 10:43:55;;;;;;;13.20;9.13;;;2.80;99.90;;;;;;4978993;28;20038;-72
2023/03/12 10:46:39;;;;;;;14.15;9.80;;;2.90;99.90;;;;;;4995473;28;20038;-72
2023/03/12 10:49:20;;;;;;;14.60;9.32;;;2.90;99.90;;;;;;4995771;28;20078;-72
2023/03/12 10:51:54;;;;;;;15.50;9.95;;;3.00;99.90;;;;;;4979190;28;20442;-72
2023/03/12 10:54:25;;;;;;;13.10;10.02;;;3.00;99.90;;;;;;4995306;28;20042;-72
2023/03/12 10:56:51;;;;;;;17.80;10.07;;;3.00;99.90;;;;;;4995021;28;20057;-72
2023/03/12 10:59:22;;;;;;;15.85;10.60;;;3.00;99.90;;;;;;4996434;28;20034;-72
2023/03/12 11:01:50;;;;;;;15.55;10.52;;;3.00;99.90;;;;;;4978914;28;20043;-72
2023/03/12 11:04:23;;;;;;;17.33;11.70;;;3.00;99.90;;;;;;4994824;28;20038;-73
2023/03/12 11:07:18;;;;;;;14.75;11.10;;;3.10;99.90;;;;;;4994894;28;20038;-72
2023/03/12 11:09:43;;;;;;;16.63;11.52;;;3.20;99.90;;;;;;4994989;28;20031;-72
2023/03/12 11:12:24;;;;;;;17.08;11.43;;;3.20;99.90;;;;;;4994645;28;20081;-72
2023/03/12 11:14:49;;;;;;;16.77;12.48;;;3.40;99.90;;;;;;4994585;28;20125;-72
2023/03/12 11:17:24;;;;;;;18.70;12.32;;;3.30;99.90;;;;;;4978444;28;20121;-72
2023/03/12 11:19:49;;;;;;;15.95;11.85;;;3.40;99.90;;;;;;4978393;28;20034;-72
2023/03/12 11:22:30;;;;;;;16.85;12.50;;;3.50;99.90;;;;;;4994723;28;20089;-72
2023/03/12 11:25:02;;;;;;;15.77;12.98;;;3.50;99.90;;;;;;4993983;28;20411;-72
2023/03/12 11:27:44;;;;;;;18.10;13.65;;;3.50;99.90;;;;;;4994830;28;20046;-72
2023/03/12 11:30:15;;;;;;;17.20;13.35;;;3.60;99.90;;;;;;4994493;28;20077;-72
2023/03/12 11:32:48;;;;;;;20.08;13.65;;;3.70;99.90;;;;;;4994434;28;20510;-72
2023/03/12 11:35:19;;;;;;;27.02;15.27;;;3.60;99.90;;;;;;4994364;28;20035;-72
2023/03/12 11:37:45;;;;;;;22.20;14.57;;;3.70;99.90;;;;;;4994418;28;20046;-72
2023/03/12 11:40:20;;;;;;;22.73;15.43;;;3.90;99.90;;;;;;4994357;28;20398;-72
2023/03/12 11:43:19;;;;;;;25.55;16.55;;;3.90;99.90;;;;;;4993975;28;20438;-72
2023/03/12 11:46:23;;;;;;;27.98;16.98;;;4.00;99.90;;;;;;4994227;28;20053;-72
2023/03/12 11:49:04;;;;;;;;;;;4.10;99.90;;;;;;4994473;28;20411;-72
2023/03/12 11:51:39;;;;;;;26.92;17.02;;;4.20;99.90;;;;;;4994060;28;19925;-72
2023/03/12 11:54:07;;;;;;;22.63;15.95;;;4.20;99.90;;;;;;4993909;28;20118;-72
2023/03/12 11:56:40;;;;;;;25.92;17.38;;;4.30;99.90;;;;;;4993891;28;20118;-72
2023/03/12 11:59:20;;;;;;;24.88;17.75;;;4.50;99.90;;;;;;4993860;28;20054;-72
2023/03/12 12:02:30;;;;;;;23.17;16.48;;;4.60;99.90;;;;;;4993874;28;20035;-72
2023/03/12 12:05:13;;;;;;;31.77;18.20;;;4.60;99.90;;;;;;4900244;29;20044;-72
2023/03/12 12:08:20;;;;;;;24.65;16.30;;;4.70;99.90;;;;;;4900215;29;20059;-73
2023/03/12 12:11:19;;;;;;;22.90;16.65;;;4.80;99.90;;;;;;4900394;29;20048;-73
2023/03/12 12:14:02;;;;;;;22.77;17.08;;;4.80;99.90;;;;;;4900068;29;20518;-72
2023/03/12 12:17:01;;;;;;;24.77;17.77;;;5.00;99.90;;;;;;4884799;29;20063;-72
2023/03/12 12:19:53;;;;;;;28.30;17.95;;;5.00;99.90;;;;;;4884982;29;20044;-72
2023/03/12 12:22:30;;;;;;;30.88;19.30;;;5.10;99.90;;;;;;4884756;29;20052;-72
2023/03/12 12:25:27;;;;;;;26.63;18.52;;;5.20;99.90;;;;;;4900065;29;20489;-72
2023/03/12 12:27:53;;;;;;;31.88;19.55;;;5.40;99.90;;;;;;4884603;29;20092;-72
2023/03/12 12:30:45;;;;;;;25.38;18.00;;;5.40;99.90;;;;;;4884627;29;20051;-72
2023/03/12 12:33:32;;;;;;;30.20;20.33;;;5.60;99.90;;;;;;4899631;29;20048;-72
2023/03/12 12:35:59;;;;;;;31.83;19.92;;;5.70;99.90;;;;;;4899729;29;20485;-72
2023/03/12 12:38:38;;;;;;;32.10;20.20;;;5.80;99.90;;;;;;4899716;29;20048;-71
2023/03/12 12:41:24;;;;;;;32.75;19.77;;;5.90;99.90;;;;;;4944155;28;20057;-71
2023/03/12 12:44:03;;;;;;;33.72;20.10;;;6.10;99.90;;;;;;4993048;28;20450;-72
2023/03/12 12:46:38;;;;;;;31.25;19.10;;;6.20;99.90;;;;;;4977278;28;20137;-72
2023/03/12 12:49:26;;;;;;;33.55;18.60;;;6.30;99.90;;;;;;4993093;28;20410;-72
2023/03/12 12:52:06;;;;;;;26.42;16.45;;;6.50;99.90;;;;;;4992987;28;20046;-72
2023/03/12 12:54:55;;;;;;;24.52;15.88;;;6.70;99.90;;;;;;4992929;28;20034;-72
2023/03/12 12:57:28;;;;;;;22.98;15.82;;;6.80;99.90;;;;;;4992811;28;20046;-72
2023/03/12 13:00:14;;;;;;;28.85;17.30;;;6.80;99.90;;;;;;4993040;28;20146;-72
2023/03/12 13:02:43;;;;;;;24.55;16.58;;;7.00;99.90;;;;;;4992936;28;20046;-72